Time;durP1;ratioP1;P1;durP2;ratioP2;P2;SDS_P1;SDS_P2;PMS_P1;PMS_P2;Temp;Humidity;BMP_temperature;BMP_pressure;BME280_temperature;BME280_humidity;BME280_pressure;Samples;Min_cycle;Max_cycle;Signal;HPM_P1;HPM_P2
2023/10/07 07:22:22;;;;;;;;;24.75;22.75;;;;;;;;6289529;22;45932;-70
2023/10/07 07:24:47;;;;;;;;;24.25;23.00;;;;;;;;6307881;22;45230;-70
2023/10/07 07:27:17;;;;;;;;;19.50;19.50;;;;;;;;6309072;22;46454;-70
2023/10/07 07:29:45;;;;;;;;;23.25;23.25;;;;;;;;6309351;22;45355;-71
2023/10/07 07:32:17;;;;;;;;;27.00;24.00;;;;;;;;6309183;22;45297;-71
2023/10/07 07:34:44;;;;;;;;;24.00;20.25;;;;;;;;6308810;22;45389;-71
2023/10/07 07:37:10;;;;;;;;;24.25;21.50;;;;;;;;6308472;22;46722;-71
2023/10/07 07:39:36;;;;;;;;;26.25;21.00;;;;;;;;6309386;22;45186;-70
2023/10/07 07:42:15;;;;;;;;;24.75;20.75;;;;;;;;6309371;22;45147;-71
2023/10/07 07:45:15;;;;;;;;;19.75;19.25;;;;;;;;6309371;22;45284;-73
2023/10/07 07:47:33;;;;;;;;;23.25;20.75;;;;;;;;6308167;22;45271;-71
2023/10/07 07:50:07;;;;;;;;;26.75;23.00;;;;;;;;6309083;22;45348;-70
2023/10/07 07:52:32;;;;;;;;;21.75;19.00;;;;;;;;6309186;22;45395;-70
2023/10/07 07:54:57;;;;;;;;;23.75;22.00;;;;;;;;6309252;22;45195;-70
2023/10/07 07:57:24;;;;;;;;;30.00;26.25;;;;;;;;6309331;22;45369;-70
2023/10/07 07:59:49;;;;;;;;;23.67;21.67;;;;;;;;6309094;22;45190;-71
2023/10/07 08:02:16;;;;;;;;;23.00;18.33;;;;;;;;6309269;22;45273;-71
2023/10/07 08:04:49;;;;;;;;;29.75;24.25;;;;;;;;6281567;22;45934;-72
2023/10/07 08:07:24;;;;;;;;;27.25;23.75;;;;;;;;6308498;22;45910;-71
2023/10/07 08:09:51;;;;;;;;;23.00;22.00;;;;;;;;6309402;22;45243;-71
2023/10/07 08:12:36;;;;;;;;;24.00;24.00;;;;;;;;6281229;22;45584;-71
2023/10/07 08:17:39;;;;;;;;;21.00;19.67;;;;;;;;6308965;22;45321;-73
2023/10/07 08:20:11;;;;;;;;;22.33;20.00;;;;;;;;6309022;22;45296;-71
2023/10/07 08:22:44;;;;;;;;;21.00;18.33;;;;;;;;6280427;22;45426;-71
2023/10/07 08:25:10;;;;;;;;;23.00;23.00;;;;;;;;6307788;22;45188;-71
2023/10/07 08:27:44;;;;;;;;;22.00;20.33;;;;;;;;6309281;22;45208;-71
2023/10/07 08:30:10;;;;;;;;;23.67;21.33;;;;;;;;6309256;22;45198;-71
2023/10/07 08:32:37;;;;;;;;;23.67;21.33;;;;;;;;6308966;22;45218;-71
2023/10/07 08:35:03;;;;;;;;;30.33;22.67;;;;;;;;6308803;22;45306;-71
2023/10/07 08:37:32;;;;;;;;;22.00;19.00;;;;;;;;6308926;22;45246;-71
2023/10/07 08:40:07;;;;;;;;;22.67;19.00;;;;;;;;6281259;22;45133;-71
2023/10/07 08:42:32;;;;;;;;;19.33;19.33;;;;;;;;6310159;22;45386;-71
2023/10/07 08:44:59;;;;;;;;;32.00;27.33;;;;;;;;6310718;22;45195;-70
2023/10/07 08:47:25;;;;;;;;;19.00;19.00;;;;;;;;6281838;22;47952;-70
2023/10/07 08:49:52;;;;;;;;;19.33;18.00;;;;;;;;6309208;22;45192;-71
2023/10/07 08:52:19;;;;;;;;;18.33;18.33;;;;;;;;6280684;22;45336;-71
2023/10/07 08:54:44;;;;;;;;;19.67;19.00;;;;;;;;6280888;22;46170;-72
2023/10/07 08:57:16;;;;;;;;;21.00;15.00;;;;;;;;6308652;22;46433;-72
2023/10/07 08:59:42;;;;;;;;;20.67;19.00;;;;;;;;6309583;22;45370;-71
2023/10/07 09:02:12;;;;;;;;;21.00;17.00;;;;;;;;6308872;22;45275;-71
2023/10/07 09:04:38;;;;;;;;;18.00;16.67;;;;;;;;6308993;22;45202;-71
2023/10/07 09:07:11;;;;;;;;;20.00;18.33;;;;;;;;6308441;22;45567;-71
2023/10/07 09:09:44;;;;;;;;;19.67;16.33;;;;;;;;6309205;22;45239;-71
2023/10/07 09:12:18;;;;;;;;;19.67;16.33;;;;;;;;6309185;22;45200;-71
2023/10/07 09:14:54;;;;;;;;;16.00;15.67;;;;;;;;6309231;22;45229;-71
2023/10/07 09:17:26;;;;;;;;;14.67;14.33;;;;;;;;6280659;22;47733;-71
2023/10/07 09:19:53;;;;;;;;;17.00;15.00;;;;;;;;6281171;22;45180;-71
2023/10/07 09:22:24;;;;;;;;;17.67;14.67;;;;;;;;6325974;22;45401;-72
2023/10/07 09:24:54;;;;;;;;;16.33;16.33;;;;;;;;6339582;22;45464;-72
2023/10/07 09:27:36;;;;;;;;;19.33;17.00;;;;;;;;6339444;22;47067;-72
2023/10/07 09:30:07;;;;;;;;;18.00;16.00;;;;;;;;6340353;22;45226;-72
2023/10/07 09:32:32;;;;;;;;;17.67;16.67;;;;;;;;6340658;22;45226;-72
2023/10/07 09:34:57;;;;;;;;;19.33;16.33;;;;;;;;6312188;22;45223;-72
2023/10/07 09:37:32;;;;;;;;;14.00;14.00;;;;;;;;6311714;22;47109;-72
2023/10/07 09:42:56;;;;;;;;;15.00;15.00;;;;;;;;6340373;22;45312;-71
2023/10/07 09:45:28;;;;;;;;;25.33;17.00;;;;;;;;6310393;22;46760;-71
2023/10/07 09:47:54;;;;;;;;;16.00;12.67;;;;;;;;6337973;22;45464;-71
2023/10/07 09:50:25;;;;;;;;;14.33;13.67;;;;;;;;6311908;22;45263;-71
2023/10/07 09:52:56;;;;;;;;;13.67;13.33;;;;;;;;6340304;22;45239;-71
2023/10/07 09:55:40;;;;;;;;;10.00;9.00;;;;;;;;6340130;22;45243;-71
2023/10/07 09:58:12;;;;;;;;;11.67;10.67;;;;;;;;6339852;22;45294;-71
2023/10/07 10:01:16;;;;;;;;;12.00;11.00;;;;;;;;6339695;22;45245;-71
2023/10/07 10:03:51;;;;;;;;;11.00;9.00;;;;;;;;6235039;22;45299;-71
2023/10/07 10:06:24;;;;;;;;;9.67;9.67;;;;;;;;6339797;22;45183;-72
2023/10/07 10:08:56;;;;;;;;;12.00;9.67;;;;;;;;6340287;22;45414;-72
2023/10/07 10:11:44;;;;;;;;;8.33;6.67;;;;;;;;6340114;22;45174;-72
2023/10/07 10:16:45;;;;;;;;;9.00;8.00;;;;;;;;6339646;22;45172;-72
2023/10/07 10:19:21;;;;;;;;;7.25;7.00;;;;;;;;6311977;22;46856;-71
2023/10/07 10:21:47;;;;;;;;;11.25;8.00;;;;;;;;6338815;22;45330;-72
2023/10/07 10:24:15;;;;;;;;;7.00;7.00;;;;;;;;6340603;22;45174;-72
2023/10/07 10:26:41;;;;;;;;;7.00;7.00;;;;;;;;6339606;22;45254;-72
2023/10/07 10:29:15;;;;;;;;;6.50;5.00;;;;;;;;6339953;22;45216;-72
2023/10/07 10:31:48;;;;;;;;;6.75;6.75;;;;;;;;6339900;22;45315;-72
2023/10/07 10:34:14;;;;;;;;;6.25;5.50;;;;;;;;6340244;22;45157;-73
2023/10/07 10:36:43;;;;;;;;;4.75;4.75;;;;;;;;6339220;22;45163;-72
2023/10/07 10:39:31;;;;;;;;;9.50;5.00;;;;;;;;6311506;22;47005;-72
2023/10/07 10:42:09;;;;;;;;;5.00;4.75;;;;;;;;6339437;22;45232;-72
2023/10/07 10:44:38;;;;;;;;;6.50;6.50;;;;;;;;6340414;22;45073;-72
2023/10/07 10:47:03;;;;;;;;;7.00;5.00;;;;;;;;6339629;22;45312;-71
2023/10/07 10:49:30;;;;;;;;;6.75;6.25;;;;;;;;6340124;22;45658;-72
2023/10/07 10:51:55;;;;;;;;;7.80;6.80;;;;;;;;6311911;22;45248;-72
2023/10/07 10:54:21;;;;;;;;;4.25;3.25;;;;;;;;6340166;22;45486;-69
2023/10/07 10:56:47;;;;;;;;;3.00;3.00;;;;;;;;6339389;22;45484;-69
2023/10/07 10:59:14;;;;;;;;;7.00;6.00;;;;;;;;6338976;22;45927;-70
2023/10/07 11:01:42;;;;;;;;;7.00;5.00;;;;;;;;6341056;22;45230;-70
2023/10/07 11:04:07;;;;;;;;;4.25;4.25;;;;;;;;6341521;22;45353;-70
2023/10/07 11:06:32;;;;;;;;;4.25;4.25;;;;;;;;6340970;22;45270;-70
2023/10/07 11:09:03;;;;;;;;;6.00;5.50;;;;;;;;6341645;22;45171;-71
2023/10/07 11:11:29;;;;;;;;;6.60;4.80;;;;;;;;6341477;22;45171;-71
2023/10/07 11:13:55;;;;;;;;;7.20;4.60;;;;;;;;6341550;22;45242;-71
2023/10/07 11:16:22;;;;;;;;;5.50;5.50;;;;;;;;6312531;22;45469;-71
2023/10/07 11:18:49;;;;;;;;;3.20;3.20;;;;;;;;6341374;22;46161;-71
2023/10/07 11:21:18;;;;;;;;;3.00;3.00;;;;;;;;6311214;22;45238;-71
2023/10/07 11:23:52;;;;;;;;;6.40;5.00;;;;;;;;6341280;22;45227;-70
2023/10/07 11:26:18;;;;;;;;;4.20;4.00;;;;;;;;6340715;22;45160;-71
2023/10/07 11:28:43;;;;;;;;;3.00;2.50;;;;;;;;6340748;22;45523;-70
2023/10/07 11:31:08;;;;;;;;;4.00;4.00;;;;;;;;6340902;22;45128;-70
2023/10/07 11:33:36;;;;;;;;;4.00;4.00;;;;;;;;6341479;22;45204;-71
2023/10/07 11:36:06;;;;;;;;;6.00;5.00;;;;;;;;6311940;22;46023;-72
2023/10/07 11:38:33;;;;;;;;;6.40;6.40;;;;;;;;6341323;22;46357;-71
2023/10/07 11:40:59;;;;;;;;;7.50;6.25;;;;;;;;6340861;22;45254;-71
2023/10/07 11:43:27;;;;;;;;;8.40;7.60;;;;;;;;6313255;22;45193;-72
2023/10/07 11:45:53;;;;;;;;;7.20;7.00;;;;;;;;6340679;22;45349;-72
2023/10/07 11:48:21;;;;;;;;;12.60;11.80;;;;;;;;6312961;22;47406;-72
2023/10/07 11:50:47;;;;;;;;;7.80;5.80;;;;;;;;6340485;22;45317;-72
2023/10/07 11:53:12;;;;;;;;;6.25;5.50;;;;;;;;6338484;22;45406;-72
2023/10/07 11:55:37;;;;;;;;;4.75;4.75;;;;;;;;6337779;22;45377;-72
2023/10/07 11:58:03;;;;;;;;;3.75;3.50;;;;;;;;6311316;22;47446;-72
2023/10/07 12:00:31;;;;;;;;;5.20;5.20;;;;;;;;6340645;22;45268;-72
2023/10/07 12:02:57;;;;;;;;;6.20;5.40;;;;;;;;6312515;22;45141;-71
2023/10/07 12:05:24;;;;;;;;;6.00;5.00;;;;;;;;6340705;22;45128;-71
2023/10/07 12:07:49;;;;;;;;;7.60;5.80;;;;;;;;6341076;22;45447;-72
2023/10/07 12:10:17;;;;;;;;;5.25;5.25;;;;;;;;6312299;22;45422;-70
2023/10/07 12:12:43;;;;;;;;;5.00;4.80;;;;;;;;6340969;22;45227;-70
2023/10/07 12:15:10;;;;;;;;;5.75;4.75;;;;;;;;6340947;22;45179;-70
2023/10/07 12:17:35;;;;;;;;;6.20;5.00;;;;;;;;6340971;22;45390;-71
2023/10/07 12:20:00;;;;;;;;;7.75;5.25;;;;;;;;6341272;22;45227;-70
2023/10/07 12:22:26;;;;;;;;;13.00;10.00;;;;;;;;6310721;22;45606;-70
2023/10/07 12:24:52;;;;;;;;;10.25;10.00;;;;;;;;6341056;22;45105;-70
2023/10/07 12:27:17;;;;;;;;;3.75;3.25;;;;;;;;6339057;22;45319;-70
2023/10/07 12:29:44;;;;;;;;;4.50;4.25;;;;;;;;6340891;22;45351;-71
2023/10/07 12:32:10;;;;;;;;;7.00;4.60;;;;;;;;6312538;22;45288;-73
2023/10/07 12:34:35;;;;;;;;;4.00;3.50;;;;;;;;6341032;22;45429;-70
2023/10/07 12:37:01;;;;;;;;;13.25;12.75;;;;;;;;6340289;22;45304;-71
2023/10/07 12:39:30;;;;;;;;;4.50;4.25;;;;;;;;6341053;22;45270;-71
2023/10/07 12:41:56;;;;;;;;;5.80;4.80;;;;;;;;6340625;22;45236;-71
2023/10/07 12:44:21;;;;;;;;;5.25;5.25;;;;;;;;6340749;22;45401;-71
2023/10/07 12:46:46;;;;;;;;;13.50;11.50;;;;;;;;6341291;22;46399;-70
2023/10/07 12:49:14;;;;;;;;;6.75;5.00;;;;;;;;6343289;22;45138;-71
2023/10/07 12:51:43;;;;;;;;;7.00;6.20;;;;;;;;6312144;22;45345;-71
2023/10/07 12:54:09;;;;;;;;;7.60;7.20;;;;;;;;6340786;22;45226;-71
2023/10/07 12:56:42;;;;;;;;;6.00;5.50;;;;;;;;6311789;22;47075;-71
2023/10/07 12:59:23;;;;;;;;;9.80;8.20;;;;;;;;6312055;22;45243;-72
2023/10/07 13:01:55;;;;;;;;;7.80;5.80;;;;;;;;6340926;22;45235;-71
2023/10/07 13:04:25;;;;;;;;;5.20;5.20;;;;;;;;6312103;22;46274;-71
2023/10/07 13:07:00;;;;;;;;;4.00;4.00;;;;;;;;6339579;22;45300;-71
2023/10/07 13:09:29;;;;;;;;;3.60;3.60;;;;;;;;6312027;22;45201;-71
2023/10/07 13:11:56;;;;;;;;;5.00;3.20;;;;;;;;6339775;22;45219;-71
2023/10/07 13:14:21;;;;;;;;;4.20;4.20;;;;;;;;6340756;22;45211;-71
2023/10/07 13:16:48;;;;;;;;;3.75;3.00;;;;;;;;6340169;22;45272;-71
2023/10/07 13:19:13;;;;;;;;;5.00;4.00;;;;;;;;6340626;22;45662;-71
2023/10/07 13:21:39;;;;;;;;;6.25;4.00;;;;;;;;6338695;22;45381;-71
2023/10/07 13:24:07;;;;;;;;;3.75;3.25;;;;;;;;6312161;22;45411;-72
2023/10/07 13:26:33;;;;;;;;;3.80;3.80;;;;;;;;6340367;22;46207;-71
2023/10/07 13:28:59;;;;;;;;;3.00;3.00;;;;;;;;6340540;22;45211;-71
2023/10/07 13:31:24;;;;;;;;;5.25;5.00;;;;;;;;6312141;22;45200;-71
2023/10/07 13:33:51;;;;;;;;;4.50;4.50;;;;;;;;6312084;22;45863;-71
2023/10/07 13:36:17;;;;;;;;;4.00;3.00;;;;;;;;6339453;22;45330;-71
2023/10/07 13:38:42;;;;;;;;;4.25;4.25;;;;;;;;6340933;22;45144;-71
2023/10/07 13:41:07;;;;;;;;;2.50;2.50;;;;;;;;6340872;22;45204;-72
2023/10/07 13:43:33;;;;;;;;;4.00;3.00;;;;;;;;6311636;22;45165;-71
2023/10/07 13:46:03;;;;;;;;;5.60;4.40;;;;;;;;6340120;22;45345;-71
2023/10/07 13:48:30;;;;;;;;;3.80;3.40;;;;;;;;6312562;22;45243;-71
2023/10/07 13:51:00;;;;;;;;;3.00;3.00;;;;;;;;6340009;22;45165;-71
2023/10/07 13:53:40;;;;;;;;;10.00;8.25;;;;;;;;6311004;22;45779;-71
2023/10/07 13:56:12;;;;;;;;;14.00;13.25;;;;;;;;6339467;22;46173;-72
2023/10/07 13:58:39;;;;;;;;;3.20;3.20;;;;;;;;6311786;22;45557;-69
2023/10/07 14:01:05;;;;;;;;;2.80;2.80;;;;;;;;6311885;22;45274;-70
2023/10/07 14:03:35;;;;;;;;;5.00;4.00;;;;;;;;6340292;22;45325;-70
2023/10/07 14:06:03;;;;;;;;;5.00;4.00;;;;;;;;6311114;22;47179;-71
2023/10/07 14:08:30;;;;;;;;;4.50;3.00;;;;;;;;6311907;22;45175;-70
2023/10/07 14:10:57;;;;;;;;;3.00;3.00;;;;;;;;6340504;22;45231;-70
2023/10/07 14:13:29;;;;;;;;;2.00;1.80;;;;;;;;6339956;22;45509;-70
2023/10/07 14:15:57;;;;;;;;;2.80;2.80;;;;;;;;6311510;22;47979;-71
2023/10/07 14:18:23;;;;;;;;;3.20;3.20;;;;;;;;6340191;22;45238;-70
2023/10/07 14:21:07;;;;;;;;;5.20;4.00;;;;;;;;6340049;22;45249;-70
2023/10/07 14:23:36;;;;;;;;;4.00;4.00;;;;;;;;6340193;22;45395;-70
2023/10/07 14:26:02;;;;;;;;;3.60;3.60;;;;;;;;6339588;22;45447;-70
2023/10/07 14:28:28;;;;;;;;;7.40;4.40;;;;;;;;6311711;22;45523;-70
2023/10/07 14:30:54;;;;;;;;;4.00;4.00;;;;;;;;6310947;22;45124;-70
2023/10/07 14:33:20;;;;;;;;;4.60;2.60;;;;;;;;6339875;22;45258;-70
2023/10/07 14:35:47;;;;;;;;;3.00;3.00;;;;;;;;6312113;22;46967;-70
2023/10/07 14:38:13;;;;;;;;;4.00;4.00;;;;;;;;6341411;22;45211;-70
2023/10/07 14:40:38;;;;;;;;;2.25;2.25;;;;;;;;6312756;22;45322;-70
2023/10/07 14:43:04;;;;;;;;;2.00;1.50;;;;;;;;6341592;22;45319;-70
2023/10/07 14:45:33;;;;;;;;;3.40;3.40;;;;;;;;6341197;22;46632;-70
2023/10/07 14:47:59;;;;;;;;;4.80;3.60;;;;;;;;6341232;22;45294;-70
2023/10/07 14:50:24;;;;;;;;;3.75;3.75;;;;;;;;6341362;22;45215;-70
2023/10/07 14:52:50;;;;;;;;;6.25;5.75;;;;;;;;6341344;22;45615;-70
2023/10/07 14:55:18;;;;;;;;;4.25;4.25;;;;;;;;6341351;22;46505;-70
2023/10/07 14:57:43;;;;;;;;;3.60;3.60;;;;;;;;6312712;22;45640;-70
2023/10/07 15:00:10;;;;;;;;;3.20;3.20;;;;;;;;6341754;22;45366;-71
2023/10/07 15:02:36;;;;;;;;;3.00;2.50;;;;;;;;6341406;22;45238;-70
2023/10/07 15:05:01;;;;;;;;;4.00;3.00;;;;;;;;6341032;22;45298;-70
2023/10/07 15:07:28;;;;;;;;;4.50;4.50;;;;;;;;6340789;22;45307;-70
2023/10/07 15:09:55;;;;;;;;;4.80;3.80;;;;;;;;6313559;22;45169;-71
2023/10/07 15:12:21;;;;;;;;;3.40;2.80;;;;;;;;6341008;22;45417;-71
2023/10/07 15:14:46;;;;;;;;;4.50;4.50;;;;;;;;6312742;22;47449;-71
2023/10/07 15:17:12;;;;;;;;;3.50;3.00;;;;;;;;6340883;22;45197;-71
2023/10/07 15:19:37;;;;;;;;;4.25;4.25;;;;;;;;6341689;22;45139;-71
2023/10/07 15:22:05;;;;;;;;;3.50;3.25;;;;;;;;6340325;22;45203;-71
2023/10/07 15:24:30;;;;;;;;;4.60;2.60;;;;;;;;6341181;22;46337;-71
2023/10/07 15:26:57;;;;;;;;;5.75;3.50;;;;;;;;6341213;22;45246;-71
2023/10/07 15:29:24;;;;;;;;;4.40;2.60;;;;;;;;6312821;22;45240;-71
2023/10/07 15:31:49;;;;;;;;;3.80;2.60;;;;;;;;6340899;22;45770;-71
2023/10/07 15:34:14;;;;;;;;;2.00;2.00;;;;;;;;6312298;22;45467;-71
2023/10/07 15:36:40;;;;;;;;;3.00;3.00;;;;;;;;6341036;22;45221;-72
2023/10/07 15:39:06;;;;;;;;;4.00;4.00;;;;;;;;6341646;22;45147;-72
2023/10/07 15:41:31;;;;;;;;;4.00;3.75;;;;;;;;6340908;22;45311;-72
2023/10/07 15:43:56;;;;;;;;;6.25;2.25;;;;;;;;6341177;22;45376;-72
2023/10/07 15:46:23;;;;;;;;;4.00;3.50;;;;;;;;6311253;22;45203;-76
2023/10/07 15:48:48;;;;;;;;;4.00;3.80;;;;;;;;6313113;22;45298;-71
2023/10/07 15:51:14;;;;;;;;;3.00;3.00;;;;;;;;6340170;22;45287;-71
2023/10/07 15:53:41;;;;;;;;;1.80;1.80;;;;;;;;6312891;22;47987;-72
2023/10/07 15:56:09;;;;;;;;;18.75;16.00;;;;;;;;6340486;22;45321;-71
2023/10/07 15:58:35;;;;;;;;;62.33;48.67;;;;;;;;6340704;22;45251;-71
2023/10/07 16:01:01;;;;;;;;;15.75;15.50;;;;;;;;6312310;22;46769;-71
2023/10/07 16:03:26;;;;;;;;;10.00;10.00;;;;;;;;6341236;22;46103;-71
2023/10/07 16:05:51;;;;;;;;;4.25;4.25;;;;;;;;6340426;22;45237;-71
2023/10/07 16:08:17;;;;;;;;;2.75;2.75;;;;;;;;6341416;22;45209;-71
2023/10/07 16:10:42;;;;;;;;;9.00;7.00;;;;;;;;6340734;22;45402;-71
2023/10/07 16:13:07;;;;;;;;;6.00;6.00;;;;;;;;6341248;22;46168;-71
2023/10/07 16:15:33;;;;;;;;;7.60;6.40;;;;;;;;6340788;22;45302;-71
2023/10/07 16:17:58;;;;;;;;;5.25;3.75;;;;;;;;6312329;22;45269;-71
2023/10/07 16:20:24;;;;;;;;;7.50;4.25;;;;;;;;6340543;22;45548;-71
2023/10/07 16:22:59;;;;;;;;;4.50;4.00;;;;;;;;6339575;22;46202;-71
2023/10/07 16:25:25;;;;;;;;;6.80;6.20;;;;;;;;6340567;22;45253;-71
2023/10/07 16:27:52;;;;;;;;;6.25;5.50;;;;;;;;6340907;22;45302;-71
2023/10/07 16:30:18;;;;;;;;;5.00;4.00;;;;;;;;6340345;22;45266;-71
2023/10/07 16:32:45;;;;;;;;;4.80;4.80;;;;;;;;6340342;22;46832;-71
2023/10/07 16:35:11;;;;;;;;;0.00;0.00;;;;;;;;6340809;22;45068;-70
2023/10/07 16:37:39;;;;;;;;;6.25;5.00;;;;;;;;6340948;22;45188;-71
2023/10/07 16:40:07;;;;;;;;;6.00;5.00;;;;;;;;6311960;22;46443;-71
2023/10/07 16:42:32;;;;;;;;;5.00;5.00;;;;;;;;6340163;22;46419;-71
2023/10/07 16:44:57;;;;;;;;;5.00;4.25;;;;;;;;6312504;22;45644;-71
2023/10/07 16:47:23;;;;;;;;;5.75;4.25;;;;;;;;6340786;22;45278;-71
2023/10/07 16:49:48;;;;;;;;;5.00;4.25;;;;;;;;6312797;22;47066;-71
2023/10/07 16:52:13;;;;;;;;;6.00;4.00;;;;;;;;6340249;22;46607;-71
2023/10/07 16:54:40;;;;;;;;;7.50;6.75;;;;;;;;6341092;22;45216;-71
2023/10/07 16:57:08;;;;;;;;;9.75;6.75;;;;;;;;6340384;22;45172;-71
2023/10/07 16:59:33;;;;;;;;;6.50;6.50;;;;;;;;6340723;22;45369;-71
2023/10/07 17:02:00;;;;;;;;;12.00;11.00;;;;;;;;6340615;22;45349;-71
2023/10/07 17:04:26;;;;;;;;;7.00;7.00;;;;;;;;6340693;22;45317;-71
2023/10/07 17:06:51;;;;;;;;;10.00;7.75;;;;;;;;6339870;22;45273;-71
2023/10/07 17:09:16;;;;;;;;;7.25;7.25;;;;;;;;6340687;22;45285;-71
2023/10/07 17:11:43;;;;;;;;;6.00;5.75;;;;;;;;6340668;22;45337;-71
2023/10/07 17:14:08;;;;;;;;;10.00;7.50;;;;;;;;6341165;22;45271;-71
2023/10/07 17:16:34;;;;;;;;;14.25;9.50;;;;;;;;6340586;22;45192;-71
2023/10/07 17:19:00;;;;;;;;;14.50;11.00;;;;;;;;6312538;22;46296;-71
2023/10/07 17:21:25;;;;;;;;;14.25;12.50;;;;;;;;6311423;22;47110;-72
2023/10/07 17:23:50;;;;;;;;;11.75;11.50;;;;;;;;6312600;22;45629;-71
2023/10/07 17:26:16;;;;;;;;;12.75;12.00;;;;;;;;6339933;22;45215;-71
2023/10/07 17:28:42;;;;;;;;;10.33;9.67;;;;;;;;6340704;22;45254;-71
2023/10/07 17:31:09;;;;;;;;;21.67;14.33;;;;;;;;6340465;22;45293;-71
2023/10/07 17:33:35;;;;;;;;;34.00;29.00;;;;;;;;6340514;22;45235;-71
2023/10/07 17:36:00;;;;;;;;;33.00;30.00;;;;;;;;6339485;22;45404;-71
2023/10/07 17:38:26;;;;;;;;;21.00;20.67;;;;;;;;6340555;22;45276;-71
2023/10/07 17:40:51;;;;;;;;;25.00;20.33;;;;;;;;6340036;22;46310;-71
2023/10/07 17:43:16;;;;;;;;;23.33;19.67;;;;;;;;6340428;22;45336;-71
2023/10/07 17:45:44;;;;;;;;;19.67;16.33;;;;;;;;6340476;22;45272;-71
2023/10/07 17:48:11;;;;;;;;;16.00;14.33;;;;;;;;6340171;22;45397;-71
2023/10/07 17:50:37;;;;;;;;;16.33;12.67;;;;;;;;6339626;22;45938;-71
2023/10/07 17:53:05;;;;;;;;;14.33;13.00;;;;;;;;6339875;22;45232;-72
2023/10/07 17:55:31;;;;;;;;;15.67;13.00;;;;;;;;6311936;22;45342;-72
2023/10/07 17:57:56;;;;;;;;;10.67;10.67;;;;;;;;6340414;22;45180;-72
2023/10/07 18:00:31;;;;;;;;;15.33;13.67;;;;;;;;6340209;22;46273;-72
2023/10/07 18:02:57;;;;;;;;;13.00;13.00;;;;;;;;6340349;22;45240;-73
2023/10/07 18:05:23;;;;;;;;;14.00;13.00;;;;;;;;6339986;22;45530;-72
2023/10/07 18:07:50;;;;;;;;;15.00;15.00;;;;;;;;6312046;22;45465;-71
2023/10/07 18:10:16;;;;;;;;;15.67;13.67;;;;;;;;6341413;22;45564;-72
2023/10/07 18:12:42;;;;;;;;;13.00;11.33;;;;;;;;6341520;22;44597;-71
2023/10/07 18:15:08;;;;;;;;;14.33;13.00;;;;;;;;6341835;22;45086;-71
2023/10/07 18:17:34;;;;;;;;;12.00;11.00;;;;;;;;6341366;22;45323;-71
2023/10/07 18:19:59;;;;;;;;;13.67;13.00;;;;;;;;6341440;22;45345;-72
2023/10/07 18:22:25;;;;;;;;;13.67;12.33;;;;;;;;6340475;22;45330;-71
2023/10/07 18:24:50;;;;;;;;;11.67;11.67;;;;;;;;6342006;22;45331;-72
2023/10/07 18:27:15;;;;;;;;;15.67;12.67;;;;;;;;6312019;22;45302;-71
2023/10/07 18:29:40;;;;;;;;;13.33;13.33;;;;;;;;6341537;22;46575;-70
2023/10/07 18:32:06;;;;;;;;;14.67;14.00;;;;;;;;6341404;22;45287;-71
2023/10/07 18:34:33;;;;;;;;;12.00;12.00;;;;;;;;6341795;22;45167;-72
2023/10/07 18:36:58;;;;;;;;;16.33;14.33;;;;;;;;6340455;22;45388;-72
2023/10/07 18:39:23;;;;;;;;;19.00;16.33;;;;;;;;6341096;22;45277;-71
2023/10/07 18:41:49;;;;;;;;;16.00;14.00;;;;;;;;6341722;22;45203;-72
2023/10/07 18:44:15;;;;;;;;;18.00;16.00;;;;;;;;6341629;22;45207;-72
2023/10/07 18:46:42;;;;;;;;;17.33;16.00;;;;;;;;6341499;22;45264;-72
2023/10/07 18:49:07;;;;;;;;;20.67;18.67;;;;;;;;6341352;22;45484;-72
2023/10/07 18:51:33;;;;;;;;;20.67;18.00;;;;;;;;6340776;22;45211;-72
2023/10/07 18:53:59;;;;;;;;;21.00;19.00;;;;;;;;6341540;22;45293;-71
2023/10/07 18:56:24;;;;;;;;;22.00;20.33;;;;;;;;6340876;22;45283;-71
2023/10/07 18:58:51;;;;;;;;;20.33;17.67;;;;;;;;6341338;22;45274;-72
2023/10/07 19:01:17;;;;;;;;;20.00;16.33;;;;;;;;6340540;22;45333;-72
2023/10/07 19:03:42;;;;;;;;;24.00;21.33;;;;;;;;6341169;22;45176;-72
2023/10/07 19:06:07;;;;;;;;;20.33;20.33;;;;;;;;6312341;22;46880;-72
2023/10/07 19:08:32;;;;;;;;;24.00;19.67;;;;;;;;6312771;22;47227;-72
2023/10/07 19:11:03;;;;;;;;;24.67;21.67;;;;;;;;6341181;22;45280;-71
2023/10/07 19:13:28;;;;;;;;;27.33;23.33;;;;;;;;6313176;22;45362;-71
2023/10/07 19:15:53;;;;;;;;;23.00;21.67;;;;;;;;6341026;22;45151;-71
2023/10/07 19:18:18;;;;;;;;;34.33;30.00;;;;;;;;6341585;22;45575;-72
2023/10/07 19:20:53;;;;;;;;;31.33;30.33;;;;;;;;6340460;22;45228;-72
2023/10/07 19:23:20;;;;;;;;;33.33;31.33;;;;;;;;6340423;22;45268;-71
2023/10/07 19:25:55;;;;;;;;;31.67;30.00;;;;;;;;6341028;22;45247;-72
2023/10/07 19:28:21;;;;;;;;;37.33;33.00;;;;;;;;6340751;22;45534;-72
2023/10/07 19:30:46;;;;;;;;;41.00;34.00;;;;;;;;6341090;22;45255;-72
2023/10/07 19:33:13;;;;;;;;;37.67;32.67;;;;;;;;6313119;22;45561;-71
2023/10/07 19:35:38;;;;;;;;;35.33;30.67;;;;;;;;6340923;22;45333;-72
2023/10/07 19:38:04;;;;;;;;;41.00;34.67;;;;;;;;6312269;22;47106;-71
2023/10/07 19:40:29;;;;;;;;;41.33;34.00;;;;;;;;6341135;22;45262;-71
2023/10/07 19:42:54;;;;;;;;;32.67;30.33;;;;;;;;6312801;22;45252;-71
2023/10/07 19:45:20;;;;;;;;;44.00;36.00;;;;;;;;6340880;22;45203;-71
2023/10/07 19:47:45;;;;;;;;;40.00;34.00;;;;;;;;6341169;22;45297;-71
2023/10/07 19:50:10;;;;;;;;;38.00;34.00;;;;;;;;6341047;22;45117;-71
2023/10/07 19:52:36;;;;;;;;;40.67;32.00;;;;;;;;6341187;22;45164;-71
2023/10/07 19:55:03;;;;;;;;;38.00;30.67;;;;;;;;6312783;22;45915;-71
2023/10/07 19:57:28;;;;;;;;;42.00;32.67;;;;;;;;6340729;22;45996;-72
2023/10/07 19:59:54;;;;;;;;;38.00;32.00;;;;;;;;6313136;22;45179;-71
2023/10/07 20:02:19;;;;;;;;;37.67;31.00;;;;;;;;6341130;22;45363;-70
2023/10/07 20:04:44;;;;;;;;;32.33;29.67;;;;;;;;6341297;22;45344;-70
2023/10/07 20:07:10;;;;;;;;;28.67;26.33;;;;;;;;6340459;22;46073;-71
2023/10/07 20:09:35;;;;;;;;;34.33;31.33;;;;;;;;6341338;22;45279;-72
2023/10/07 20:12:01;;;;;;;;;30.00;27.67;;;;;;;;6312872;22;45318;-71
2023/10/07 20:14:26;;;;;;;;;30.33;28.67;;;;;;;;6341298;22;45748;-71
2023/10/07 20:16:51;;;;;;;;;35.33;30.67;;;;;;;;6341174;22;45419;-71
2023/10/07 20:19:16;;;;;;;;;34.00;30.33;;;;;;;;6341597;22;45250;-70
2023/10/07 20:21:42;;;;;;;;;36.00;30.00;;;;;;;;6340585;22;45247;-70
2023/10/07 20:24:07;;;;;;;;;33.00;30.33;;;;;;;;6314818;22;45597;-71
2023/10/07 20:26:32;;;;;;;;;40.33;33.00;;;;;;;;6314426;22;46880;-71
2023/10/07 20:28:58;;;;;;;;;51.75;39.25;;;;;;;;6340943;22;45293;-72
2023/10/07 20:31:23;;;;;;;;;40.00;35.00;;;;;;;;6340220;22;45281;-71
2023/10/07 20:33:48;;;;;;;;;45.75;37.25;;;;;;;;6341163;22;45275;-70
2023/10/07 20:36:14;;;;;;;;;50.75;39.00;;;;;;;;6340262;22;46599;-70
2023/10/07 20:38:43;;;;;;;;;47.00;39.50;;;;;;;;6340755;22;45200;-71
2023/10/07 20:41:10;;;;;;;;;55.25;42.75;;;;;;;;6312519;22;45208;-71
2023/10/07 20:43:35;;;;;;;;;47.75;40.00;;;;;;;;6340930;22;45432;-71
2023/10/07 20:46:02;;;;;;;;;49.00;38.00;;;;;;;;6340749;22;46518;-71
2023/10/07 20:48:27;;;;;;;;;50.50;40.00;;;;;;;;6341087;22;45229;-71
2023/10/07 20:51:01;;;;;;;;;46.50;37.00;;;;;;;;6311939;22;45215;-72
2023/10/07 20:53:27;;;;;;;;;39.75;35.00;;;;;;;;6312638;22;46278;-72
2023/10/07 20:55:52;;;;;;;;;38.67;34.67;;;;;;;;6340552;22;45294;-72
2023/10/07 20:58:17;;;;;;;;;41.25;35.50;;;;;;;;6341140;22;45197;-72
2023/10/07 21:00:43;;;;;;;;;43.25;37.25;;;;;;;;6340503;22;45306;-70
2023/10/07 21:03:08;;;;;;;;;42.00;33.50;;;;;;;;6312653;22;46279;-70
2023/10/07 21:05:35;;;;;;;;;38.00;32.33;;;;;;;;6340035;22;45264;-71
2023/10/07 21:08:00;;;;;;;;;42.00;34.00;;;;;;;;6340984;22;45218;-72
2023/10/07 21:10:25;;;;;;;;;35.67;31.33;;;;;;;;6340684;22;45355;-70
2023/10/07 21:12:51;;;;;;;;;31.33;30.00;;;;;;;;6341046;22;45462;-71
2023/10/07 21:15:16;;;;;;;;;38.00;32.67;;;;;;;;6340762;22;45354;-71
2023/10/07 21:17:41;;;;;;;;;30.33;26.67;;;;;;;;6341142;22;45220;-69
2023/10/07 21:20:08;;;;;;;;;33.67;31.00;;;;;;;;6340833;22;45235;-73
2023/10/07 21:22:34;;;;;;;;;34.33;31.67;;;;;;;;6310589;22;45247;-71
2023/10/07 21:25:00;;;;;;;;;30.33;28.33;;;;;;;;6340882;22;46651;-71
2023/10/07 21:27:27;;;;;;;;;31.67;28.33;;;;;;;;6340315;22;45193;-70
2023/10/07 21:29:52;;;;;;;;;30.00;26.67;;;;;;;;6340691;22;45302;-70
2023/10/07 21:32:18;;;;;;;;;38.67;32.67;;;;;;;;6340577;22;45173;-69
2023/10/07 21:34:43;;;;;;;;;39.00;32.00;;;;;;;;6340488;22;46164;-69
2023/10/07 21:37:09;;;;;;;;;32.67;30.33;;;;;;;;6340563;22;45238;-69
2023/10/07 21:39:35;;;;;;;;;34.67;31.67;;;;;;;;6340908;22;45222;-70
2023/10/07 21:42:00;;;;;;;;;40.00;33.75;;;;;;;;6311789;22;45759;-69
2023/10/07 21:44:27;;;;;;;;;35.67;30.33;;;;;;;;6312061;22;45313;-71
2023/10/07 21:46:52;;;;;;;;;38.33;34.00;;;;;;;;6340413;22;45247;-70
2023/10/07 21:49:17;;;;;;;;;39.75;34.50;;;;;;;;6311362;22;45255;-72
2023/10/07 21:51:43;;;;;;;;;38.00;32.75;;;;;;;;6339932;22;45417;-71
2023/10/07 21:54:09;;;;;;;;;41.50;33.25;;;;;;;;6340253;22;45515;-72
2023/10/07 21:56:34;;;;;;;;;33.00;31.33;;;;;;;;6340250;22;45159;-71
2023/10/07 21:59:00;;;;;;;;;36.33;32.33;;;;;;;;6340674;22;44638;-71